createdAt,value
2022-09-27T00:01:02.206Z,1.77
2022-09-27T00:03:35.112Z,2.03
2022-09-27T00:06:10.925Z,1.73
2022-09-27T00:08:43.749Z,1.80
2022-09-27T00:11:27.280Z,1.40
2022-09-27T00:14:00.771Z,1.60
2022-09-27T00:16:36.825Z,2.20
2022-09-27T00:19:21.818Z,1.80
2022-09-27T00:21:54.558Z,1.63
2022-09-27T00:24:27.442Z,1.60
2022-09-27T00:27:00.192Z,2.00
2022-09-27T00:29:33.307Z,2.27
2022-09-27T00:32:06.074Z,2.13
2022-09-27T00:34:39.502Z,1.83
2022-09-27T00:37:12.487Z,1.97
2022-09-27T00:39:45.372Z,2.10
2022-09-27T00:42:18.079Z,1.70
2022-09-27T00:45:04.195Z,1.50
2022-09-27T00:47:44.294Z,1.70
2022-09-27T00:50:31.175Z,1.60
2022-09-27T00:53:16.814Z,1.93
2022-09-27T00:55:59.264Z,1.90
2022-09-27T00:58:56.798Z,2.17
2022-09-27T01:01:32.696Z,1.40
2022-09-27T01:04:22.477Z,1.73
2022-09-27T01:06:55.412Z,1.27
2022-09-27T01:09:29.055Z,1.20
2022-09-27T01:12:14.210Z,0.90
2022-09-27T01:14:56.209Z,1.10
2022-09-27T01:17:50.779Z,1.20
2022-09-27T01:21:10.349Z,1.00
2022-09-27T01:24:08.106Z,0.87
2022-09-27T01:26:56.385Z,0.80
2022-09-27T01:30:07.035Z,0.73
2022-09-27T01:33:10.929Z,0.80
2022-09-27T01:35:59.128Z,0.80
2022-09-27T01:38:49.920Z,0.70
2022-09-27T01:41:38.629Z,0.70
2022-09-27T01:44:44.898Z,1.00
2022-09-27T01:47:28.926Z,1.27
2022-09-27T01:50:35.564Z,1.20
2022-09-27T01:53:13.727Z,1.10
2022-09-27T01:56:09.694Z,1.40
2022-09-27T01:59:02.962Z,1.30
2022-09-27T02:01:40.295Z,1.10
2022-09-27T02:04:18.781Z,0.90
2022-09-27T02:07:23.573Z,1.17
2022-09-27T02:10:23.173Z,1.03
2022-09-27T02:13:23.594Z,0.80
2022-09-27T02:16:16.838Z,1.33
2022-09-27T02:19:11.868Z,1.00
2022-09-27T02:22:12.915Z,0.97
2022-09-27T02:24:48.948Z,0.90
2022-09-27T02:27:27.739Z,0.70
2022-09-27T02:30:06.058Z,0.90
2022-09-27T02:32:40.401Z,0.80
2022-09-27T02:35:26.367Z,0.80
2022-09-27T02:37:59.686Z,0.80
2022-09-27T02:40:35.832Z,0.70
2022-09-27T02:43:10.392Z,0.93
2022-09-27T02:45:48.992Z,1.07
2022-09-27T02:48:29.690Z,0.77
2022-09-27T02:51:38.925Z,0.50
2022-09-27T02:54:24.431Z,0.60
2022-09-27T02:57:50.296Z,0.63
2022-09-27T03:00:53.914Z,0.67
2022-09-27T03:03:53.854Z,0.80
2022-09-27T03:06:28.862Z,0.67
2022-09-27T03:09:01.573Z,0.67
2022-09-27T03:11:34.768Z,0.50
2022-09-27T03:14:09.195Z,0.50
2022-09-27T03:16:48.147Z,0.60
2022-09-27T03:19:39.660Z,0.50
2022-09-27T03:22:31.245Z,0.97
2022-09-27T03:25:05.697Z,0.40
2022-09-27T03:27:39.198Z,0.63
2022-09-27T03:30:13.986Z,0.60
2022-09-27T03:32:47.032Z,0.60
2022-09-27T03:35:43.918Z,0.63
2022-09-27T03:38:17.042Z,0.60
2022-09-27T03:40:49.799Z,0.60
2022-09-27T03:43:22.758Z,0.77
2022-09-27T03:45:55.598Z,0.70
2022-09-27T03:48:31.078Z,0.97
2022-09-27T03:51:04.541Z,0.67
2022-09-27T03:53:37.363Z,0.70
2022-09-27T03:56:11.190Z,0.60
2022-09-27T03:58:45.070Z,0.60
2022-09-27T04:01:18.138Z,0.70
2022-09-27T04:03:53.663Z,0.50
2022-09-27T04:06:35.364Z,0.60
2022-09-27T04:09:09.013Z,0.70
2022-09-27T04:12:02.291Z,0.70
2022-09-27T04:14:35.314Z,0.88
2022-09-27T04:17:27.518Z,0.70
2022-09-27T04:20:23.438Z,0.90
2022-09-27T04:22:56.379Z,0.80
2022-09-27T04:25:29.319Z,0.77
2022-09-27T04:28:06.086Z,1.17
2022-09-27T04:30:39.631Z,1.27
2022-09-27T04:33:18.356Z,1.40
2022-09-27T04:36:27.873Z,1.67
2022-09-27T04:39:29.954Z,2.03
2022-09-27T04:42:03.482Z,2.03
2022-09-27T04:44:36.310Z,1.80
2022-09-27T04:47:09.252Z,1.80
2022-09-27T04:49:42.162Z,2.30
2022-09-27T04:52:15.410Z,1.80
2022-09-27T04:54:48.352Z,1.40
2022-09-27T04:57:21.137Z,1.57
2022-09-27T04:59:53.918Z,1.20
2022-09-27T05:02:28.019Z,0.90
2022-09-27T05:05:38.771Z,1.40
2022-09-27T05:08:11.684Z,1.07
2022-09-27T05:11:18.043Z,1.20
2022-09-27T05:14:11.736Z,1.48
2022-09-27T05:16:55.426Z,1.30
2022-09-27T05:19:51.451Z,1.37
2022-09-27T05:22:35.541Z,1.30
2022-09-27T05:25:09.106Z,1.50
2022-09-27T05:27:42.248Z,1.33
2022-09-27T05:30:15.842Z,1.30
2022-09-27T05:32:55.655Z,2.07
2022-09-27T05:35:54.384Z,1.93
2022-09-27T05:38:30.076Z,1.93
2022-09-27T05:41:05.542Z,2.40
2022-09-27T05:43:38.827Z,2.50
2022-09-27T05:46:11.952Z,2.00
2022-09-27T05:48:45.114Z,2.23
2022-09-27T05:51:19.291Z,1.80
2022-09-27T05:53:52.241Z,1.70
2022-09-27T05:56:31.485Z,2.00
2022-09-27T05:59:25.946Z,1.90
2022-09-27T06:02:18.474Z,1.60
2022-09-27T06:05:14.626Z,1.80
2022-09-27T06:08:12.678Z,1.63
2022-09-27T06:11:03.469Z,1.60
2022-09-27T06:13:37.518Z,2.00
2022-09-27T06:16:11.826Z,1.77
2022-09-27T06:18:46.671Z,1.63
2022-09-27T06:21:20.266Z,1.83
2022-09-27T06:24:00.187Z,1.90
2022-09-27T06:26:37.096Z,1.60
2022-09-27T06:29:21.471Z,1.90
2022-09-27T06:32:01.433Z,1.73
2022-09-27T06:34:40.175Z,1.83
2022-09-27T06:37:13.182Z,1.83
2022-09-27T06:39:47.068Z,1.77
2022-09-27T06:42:40.266Z,2.10
2022-09-27T06:45:21.883Z,2.00
2022-09-27T06:48:16.064Z,1.90
2022-09-27T06:50:59.918Z,2.10
2022-09-27T06:53:32.743Z,2.33
2022-09-27T06:56:05.903Z,2.10
2022-09-27T06:59:08.458Z,2.30
2022-09-27T07:01:52.390Z,2.20
2022-09-27T07:04:30.636Z,2.80
2022-09-27T07:07:03.361Z,2.50
2022-09-27T07:09:40.123Z,2.50
2022-09-27T07:12:13.568Z,2.43
2022-09-27T07:14:47.152Z,2.63
2022-09-27T07:17:23.091Z,2.70
2022-09-27T07:19:56.769Z,2.50
2022-09-27T07:22:30.867Z,2.20
2022-09-27T07:25:07.923Z,2.00
2022-09-27T07:27:43.606Z,2.20
2022-09-27T07:30:16.991Z,2.30
2022-09-27T07:32:50.126Z,2.73
2022-09-27T07:35:22.990Z,2.60
2022-09-27T07:37:56.917Z,1.93
2022-09-27T07:40:29.834Z,2.07
2022-09-27T07:43:02.717Z,1.73
2022-09-27T07:45:36.237Z,2.03
2022-09-27T07:48:29.689Z,1.80
2022-09-27T07:51:18.907Z,2.50
2022-09-27T07:54:08.586Z,1.57
2022-09-27T07:57:11.323Z,1.57
2022-09-27T07:59:56.453Z,1.40
2022-09-27T08:02:31.237Z,1.50
2022-09-27T08:05:04.912Z,1.70
2022-09-27T08:07:39.483Z,1.33
2022-09-27T08:10:13.113Z,1.67
2022-09-27T08:12:46.262Z,1.50
2022-09-27T08:15:19.008Z,1.70
2022-09-27T08:17:51.906Z,1.30
2022-09-27T08:20:35.579Z,1.50
2022-09-27T08:23:13.612Z,1.30
2022-09-27T08:25:53.887Z,1.07
2022-09-27T08:28:35.487Z,0.70
2022-09-27T08:31:21.644Z,1.00
2022-09-27T08:33:54.908Z,0.83
2022-09-27T08:36:30.640Z,1.00
2022-09-27T08:39:04.430Z,0.80
2022-09-27T08:42:39.513Z,1.30
2022-09-27T08:45:28.817Z,1.00
2022-09-27T08:48:03.869Z,0.90
2022-09-27T08:50:41.916Z,1.00
2022-09-27T08:53:36.927Z,0.90
2022-09-27T08:56:11.045Z,1.03
2022-09-27T08:59:10.344Z,1.03
2022-09-27T09:01:43.764Z,0.90
2022-09-27T09:04:38.621Z,1.43
2022-09-27T09:07:20.651Z,1.20
2022-09-27T09:10:07.372Z,1.27
2022-09-27T09:13:00.546Z,1.33
2022-09-27T09:16:10.423Z,1.30
2022-09-27T09:19:09.003Z,1.33
2022-09-27T09:22:07.695Z,1.20
2022-09-27T09:24:43.828Z,1.30
2022-09-27T09:27:28.134Z,1.40
2022-09-27T09:30:20.478Z,1.43
2022-09-27T09:33:09.386Z,1.83
2022-09-27T09:35:58.221Z,1.80
2022-09-27T09:38:40.347Z,2.03
2022-09-27T09:41:19.292Z,1.67
2022-09-27T09:44:04.783Z,1.63
2022-09-27T09:46:46.046Z,1.20
2022-09-27T09:49:40.975Z,1.27
2022-09-27T09:52:19.682Z,1.07
2022-09-27T09:55:13.107Z,1.20
2022-09-27T09:58:10.828Z,1.40
2022-09-27T10:00:54.470Z,1.20
2022-09-27T10:03:27.693Z,1.40
2022-09-27T10:06:00.669Z,1.43
2022-09-27T10:08:34.065Z,1.27
2022-09-27T10:11:39.771Z,1.20
2022-09-27T10:14:18.170Z,1.60
2022-09-27T10:17:10.154Z,1.45
2022-09-27T10:19:43.054Z,1.10
2022-09-27T10:22:23.620Z,1.40
2022-09-27T10:25:06.900Z,3.90
2022-09-27T10:27:55.853Z,3.93
2022-09-27T10:30:35.170Z,1.10
2022-09-27T10:33:19.009Z,1.20
2022-09-27T10:35:56.331Z,1.10
2022-09-27T10:38:51.271Z,0.90
2022-09-27T10:41:42.295Z,0.63
2022-09-27T10:44:34.214Z,0.90
2022-09-27T10:47:27.035Z,1.00
2022-09-27T10:50:09.491Z,1.00
2022-09-27T10:53:14.039Z,0.63
2022-09-27T10:55:50.731Z,0.73
2022-09-27T10:58:36.762Z,0.90
2022-09-27T11:01:12.460Z,1.03
2022-09-27T11:04:07.359Z,1.15
2022-09-27T11:06:41.013Z,0.93
2022-09-27T11:09:24.073Z,0.80
2022-09-27T11:12:13.081Z,0.80
2022-09-27T11:14:57.091Z,0.90
2022-09-27T11:17:45.208Z,0.90
2022-09-27T11:20:31.094Z,0.50
2022-09-27T11:23:29.478Z,0.60
2022-09-27T11:26:15.930Z,0.57
2022-09-27T11:29:10.133Z,0.40
2022-09-27T11:32:14.577Z,0.50
2022-09-27T11:34:56.149Z,0.37
2022-09-27T11:37:40.727Z,0.30
2022-09-27T11:40:31.907Z,0.63
2022-09-27T11:43:42.589Z,0.80
2022-09-27T11:46:45.618Z,0.40
2022-09-27T11:49:36.428Z,0.50
2022-09-27T11:52:21.544Z,0.50
2022-09-27T11:55:19.396Z,0.43
2022-09-27T11:58:30.705Z,1.00
2022-09-27T12:01:20.335Z,0.70
2022-09-27T12:04:27.167Z,0.50
2022-09-27T12:07:22.393Z,0.60
2022-09-27T12:10:01.355Z,0.50
2022-09-27T12:12:41.212Z,0.47
2022-09-27T12:15:25.261Z,0.60
2022-09-27T12:18:21.563Z,0.50
2022-09-27T12:20:55.680Z,0.40
2022-09-27T12:23:42.047Z,0.57
2022-09-27T12:26:34.598Z,0.50
2022-09-27T12:29:22.290Z,0.60
2022-09-27T12:32:04.100Z,0.50
2022-09-27T12:34:42.282Z,0.50
2022-09-27T12:37:29.047Z,0.50
2022-09-27T12:40:18.511Z,0.60
2022-09-27T12:43:00.138Z,0.40
2022-09-27T12:46:19.770Z,0.50
2022-09-27T12:49:15.471Z,0.40
2022-09-27T12:51:56.341Z,0.60
2022-09-27T12:54:51.928Z,0.60
2022-09-27T12:58:09.836Z,0.83
2022-09-27T13:00:59.290Z,0.70
2022-09-27T13:03:59.654Z,0.60
2022-09-27T13:06:56.976Z,0.87
2022-09-27T13:09:55.388Z,1.10
2022-09-27T13:12:30.893Z,0.90
2022-09-27T13:15:19.097Z,0.80
2022-09-27T13:17:55.320Z,0.40
2022-09-27T13:20:49.070Z,0.40
2022-09-27T13:23:40.075Z,0.40
2022-09-27T13:26:32.147Z,0.40
2022-09-27T13:29:29.532Z,0.40
2022-09-27T13:32:26.159Z,0.50
2022-09-27T13:35:24.383Z,0.50
2022-09-27T13:38:05.940Z,0.57
2022-09-27T13:40:53.968Z,0.70
2022-09-27T13:44:27.414Z,0.50
2022-09-27T13:47:15.635Z,0.60
2022-09-27T13:49:52.644Z,0.67
2022-09-27T13:52:38.010Z,0.70
2022-09-27T13:55:44.922Z,0.70
2022-09-27T13:58:44.225Z,0.60
2022-09-27T14:01:43.850Z,0.70
2022-09-27T14:04:25.584Z,0.60
2022-09-27T14:07:01.702Z,0.63
2022-09-27T14:09:40.634Z,0.65
2022-09-27T14:12:40.130Z,0.57
2022-09-27T14:15:21.144Z,0.60
2022-09-27T14:17:55.294Z,0.60
2022-09-27T14:20:47.866Z,0.80
2022-09-27T14:23:50.631Z,0.80
2022-09-27T14:26:28.221Z,0.60
2022-09-27T14:29:01.256Z,0.70
2022-09-27T14:31:38.915Z,0.60
2022-09-27T14:34:25.893Z,0.63
2022-09-27T14:37:17.636Z,0.60
2022-09-27T14:40:06.004Z,0.53
2022-09-27T14:42:38.827Z,0.60
2022-09-27T14:45:22.255Z,0.50
2022-09-27T14:47:54.998Z,0.53
2022-09-27T14:50:30.959Z,0.60
2022-09-27T14:53:05.238Z,0.60
2022-09-27T14:55:39.596Z,0.40
2022-09-27T14:58:29.710Z,2.03
2022-09-27T15:01:15.034Z,0.60
2022-09-27T15:03:49.022Z,0.60
2022-09-27T15:06:24.830Z,0.50
2022-09-27T15:08:59.763Z,0.70
2022-09-27T15:11:34.790Z,0.50
2022-09-27T15:14:13.630Z,0.40
2022-09-27T15:16:52.367Z,0.60
2022-09-27T15:19:27.903Z,0.50
2022-09-27T15:22:36.541Z,0.50
2022-09-27T15:25:23.600Z,0.50
2022-09-27T15:27:56.490Z,0.63
2022-09-27T15:30:38.313Z,0.60
2022-09-27T15:33:24.108Z,0.77
2022-09-27T15:36:01.571Z,0.60
2022-09-27T15:38:40.558Z,0.67
2022-09-27T15:41:18.643Z,1.00
2022-09-27T15:43:52.724Z,0.70
2022-09-27T15:46:36.289Z,1.00
2022-09-27T15:49:30.379Z,0.70
2022-09-27T15:52:05.100Z,0.73
2022-09-27T15:54:38.188Z,0.80
2022-09-27T15:57:12.254Z,0.70
2022-09-27T15:59:45.008Z,0.70
2022-09-27T16:02:19.418Z,0.80
2022-09-27T16:04:52.332Z,0.60
2022-09-27T16:07:25.020Z,0.90
2022-09-27T16:09:57.852Z,0.80
2022-09-27T16:12:31.156Z,0.70
2022-09-27T16:15:05.030Z,0.90
2022-09-27T16:17:39.178Z,0.57
2022-09-27T16:20:23.563Z,0.80
2022-09-27T16:22:57.505Z,0.90
2022-09-27T16:25:30.527Z,1.10
2022-09-27T16:28:05.239Z,0.70
2022-09-27T16:30:38.123Z,0.60
2022-09-27T16:33:10.893Z,0.60
2022-09-27T16:35:43.618Z,0.77
2022-09-27T16:38:16.745Z,0.73
2022-09-27T16:40:49.518Z,0.80
2022-09-27T16:43:27.248Z,0.80
2022-09-27T16:46:09.124Z,0.80
2022-09-27T16:48:42.739Z,0.70
2022-09-27T16:51:37.050Z,0.80
2022-09-27T16:54:09.884Z,0.90
2022-09-27T16:56:42.902Z,0.87
2022-09-27T16:59:15.647Z,0.70
2022-09-27T17:01:48.534Z,0.60
2022-09-27T17:04:21.296Z,0.40
2022-09-27T17:06:54.791Z,0.50
2022-09-27T17:09:27.498Z,0.80
2022-09-27T17:12:00.287Z,0.50
2022-09-27T17:14:32.941Z,0.47
2022-09-27T17:17:06.500Z,0.40
2022-09-27T17:19:39.299Z,0.70
2022-09-27T17:22:12.047Z,0.70
2022-09-27T17:24:44.710Z,0.50
2022-09-27T17:27:17.537Z,0.60
2022-09-27T17:29:50.393Z,0.60
2022-09-27T17:32:24.593Z,0.60
2022-09-27T17:34:58.801Z,0.90
2022-09-27T17:37:31.519Z,2.63
2022-09-27T17:40:05.188Z,0.90
2022-09-27T17:42:38.197Z,0.70
2022-09-27T17:45:10.943Z,0.70
2022-09-27T17:48:02.172Z,0.60
2022-09-27T17:50:37.386Z,0.60
2022-09-27T17:53:10.097Z,0.50
2022-09-27T17:55:42.820Z,0.60
2022-09-27T17:58:15.514Z,0.70
2022-09-27T18:00:48.231Z,0.60
2022-09-27T18:03:21.321Z,0.90
2022-09-27T18:05:54.244Z,0.80
2022-09-27T18:08:30.395Z,1.00
2022-09-27T18:11:05.210Z,0.80
2022-09-27T18:13:41.665Z,1.10
2022-09-27T18:16:16.767Z,0.80
2022-09-27T18:18:49.707Z,1.00
2022-09-27T18:21:23.602Z,1.20
2022-09-27T18:23:57.820Z,1.00
2022-09-27T18:26:32.414Z,0.87
2022-09-27T18:29:08.042Z,0.93
2022-09-27T18:31:47.462Z,1.00
2022-09-27T18:34:21.187Z,1.00
2022-09-27T18:36:53.992Z,0.90
2022-09-27T18:39:26.732Z,1.23
2022-09-27T18:41:59.473Z,1.10
2022-09-27T18:44:32.888Z,1.00
2022-09-27T18:47:05.700Z,1.00
2022-09-27T18:49:38.448Z,1.00
2022-09-27T18:52:11.184Z,1.10
2022-09-27T18:54:43.946Z,1.27
2022-09-27T18:57:16.619Z,0.90
2022-09-27T18:59:49.333Z,0.70
2022-09-27T19:02:22.034Z,1.10
2022-09-27T19:04:54.759Z,1.20
2022-09-27T19:07:27.474Z,0.87
2022-09-27T19:10:01.715Z,0.80
2022-09-27T19:12:34.646Z,0.67
2022-09-27T19:15:08.323Z,0.50
2022-09-27T19:17:41.305Z,0.80
2022-09-27T19:20:14.195Z,0.60
2022-09-27T19:22:47.088Z,0.90
2022-09-27T19:25:19.902Z,0.87
2022-09-27T19:27:53.181Z,1.00
2022-09-27T19:30:25.999Z,1.07
2022-09-27T19:32:58.776Z,0.90
2022-09-27T19:35:31.599Z,1.27
2022-09-27T19:38:04.335Z,0.70
2022-09-27T19:40:37.126Z,0.80
2022-09-27T19:43:10.092Z,0.70
2022-09-27T19:45:42.836Z,0.90
2022-09-27T19:48:15.720Z,0.63
2022-09-27T19:50:59.554Z,0.67
2022-09-27T19:53:33.528Z,0.80
2022-09-27T19:56:07.975Z,0.80
2022-09-27T19:58:42.115Z,0.73
2022-09-27T20:01:25.127Z,0.70
2022-09-27T20:03:59.667Z,0.70
2022-09-27T20:06:32.649Z,0.77
2022-09-27T20:09:05.870Z,0.73
2022-09-27T20:11:38.860Z,0.83
2022-09-27T20:14:11.679Z,0.60
2022-09-27T20:16:44.358Z,0.70
2022-09-27T20:19:17.303Z,0.70
2022-09-27T20:21:50.087Z,0.50
2022-09-27T20:24:22.950Z,0.70
2022-09-27T20:26:55.686Z,0.70
2022-09-27T20:29:28.437Z,0.70
2022-09-27T20:32:26.002Z,0.50
2022-09-27T20:34:54.481Z,0.50
2022-09-27T20:37:27.180Z,0.60
2022-09-27T20:39:59.955Z,0.70
2022-09-27T20:42:32.720Z,0.73
2022-09-27T20:45:05.747Z,0.70
2022-09-27T20:47:39.272Z,0.70
2022-09-27T20:50:12.438Z,0.70
2022-09-27T20:52:45.333Z,0.60
2022-09-27T20:55:17.989Z,0.80
2022-09-27T20:57:57.573Z,0.88
2022-09-27T21:00:30.638Z,0.80
2022-09-27T21:03:03.661Z,0.93
2022-09-27T21:05:36.374Z,0.77
2022-09-27T21:08:09.145Z,0.73
2022-09-27T21:10:41.900Z,0.73
2022-09-27T21:13:15.069Z,1.00
2022-09-27T21:15:48.124Z,1.00
2022-09-27T21:18:20.895Z,0.97
2022-09-27T21:21:01.298Z,0.73
2022-09-27T21:23:36.812Z,0.90
2022-09-27T21:26:14.452Z,0.73
2022-09-27T21:28:49.501Z,0.80
2022-09-27T21:31:31.683Z,0.83
2022-09-27T21:34:05.894Z,0.90
2022-09-27T21:36:39.280Z,0.80
2022-09-27T21:39:12.056Z,1.10
2022-09-27T21:41:45.256Z,0.90
2022-09-27T21:44:18.009Z,0.83
2022-09-27T21:46:51.881Z,0.87
2022-09-27T21:49:24.737Z,0.70
2022-09-27T21:51:57.492Z,0.90
2022-09-27T21:54:31.463Z,0.70
2022-09-27T21:57:04.227Z,0.90
2022-09-27T21:59:36.965Z,0.80
2022-09-27T22:02:09.725Z,0.73
2022-09-27T22:04:42.685Z,0.60
2022-09-27T22:07:15.908Z,0.87
2022-09-27T22:09:49.409Z,0.80
2022-09-27T22:12:22.065Z,0.90
2022-09-27T22:14:54.861Z,1.10
2022-09-27T22:17:27.612Z,0.70
2022-09-27T22:20:00.464Z,1.00
2022-09-27T22:22:33.486Z,0.77
2022-09-27T22:25:06.359Z,0.77
2022-09-27T22:27:39.011Z,0.93
2022-09-27T22:30:12.399Z,0.70
2022-09-27T22:32:45.652Z,0.83
2022-09-27T22:35:18.437Z,0.90
2022-09-27T22:37:52.593Z,0.70
2022-09-27T22:40:25.542Z,0.80
2022-09-27T22:42:58.911Z,0.90
2022-09-27T22:45:31.671Z,0.63
2022-09-27T22:48:04.372Z,0.77
2022-09-27T22:50:37.139Z,0.73
2022-09-27T22:53:09.800Z,0.77
2022-09-27T22:55:42.581Z,0.90
2022-09-27T22:58:15.910Z,0.70
2022-09-27T23:00:48.644Z,0.67
2022-09-27T23:03:21.770Z,0.70
2022-09-27T23:06:01.094Z,0.77
2022-09-27T23:08:35.244Z,0.80
2022-09-27T23:11:11.153Z,0.70
2022-09-27T23:13:44.642Z,0.70
2022-09-27T23:16:20.308Z,0.80
2022-09-27T23:18:54.421Z,0.70
2022-09-27T23:21:28.736Z,1.00
2022-09-27T23:24:01.613Z,0.70
2022-09-27T23:26:34.330Z,0.80
2022-09-27T23:29:07.231Z,0.80
2022-09-27T23:31:40.015Z,0.57
2022-09-27T23:34:14.857Z,0.80
2022-09-27T23:36:47.638Z,0.97
2022-09-27T23:39:20.449Z,0.87
2022-09-27T23:41:53.405Z,0.73
2022-09-27T23:44:26.156Z,0.80
2022-09-27T23:47:00.628Z,0.90
2022-09-27T23:49:33.421Z,0.70
2022-09-27T23:52:06.550Z,0.80
2022-09-27T23:54:39.399Z,1.17
2022-09-27T23:57:12.209Z,0.80
2022-09-27T23:59:44.870Z,0.90
